Time;durP1;ratioP1;P1;durP2;ratioP2;P2;SDS_P1;SDS_P2;PMS_P1;PMS_P2;Temp;Humidity;BMP_temperature;BMP_pressure;BME280_temperature;BME280_humidity;BME280_pressure;Samples;Min_cycle;Max_cycle;Signal;HPM_P1;HPM_P2
2023/08/08 00:02:42;;;;;;;6.20;3.27;;;;;;;23.54;57.02;99531.03;1786567;79;21330;-75
2023/08/08 00:05:47;;;;;;;7.47;3.50;;;;;;;23.74;56.46;99531.59;1797655;79;21324;-75
2023/08/08 00:08:53;;;;;;;14.38;3.83;;;;;;;23.68;56.64;99530.77;1786676;79;21334;-75
2023/08/08 00:11:58;;;;;;;9.70;3.77;;;;;;;23.57;56.86;99530.48;1782630;79;21335;-75
2023/08/08 00:15:03;;;;;;;8.60;3.72;;;;;;;23.59;56.67;99528.23;1793773;79;21889;-76
2023/08/08 00:18:08;;;;;;;9.73;3.52;;;;;;;23.56;56.85;99531.58;1792266;79;21370;-76
2023/08/08 00:21:13;;;;;;;5.08;3.50;;;;;;;23.50;57.00;99536.89;1793085;79;21316;-76
2023/08/08 00:24:19;;;;;;;7.28;3.80;;;;;;;23.46;57.13;99538.01;1780825;79;21334;-75
2023/08/08 00:27:24;;;;;;;7.20;3.98;;;;;;;23.57;56.91;99540.25;1781431;79;21318;-76
2023/08/08 00:30:31;;;;;;;12.10;3.50;;;;;;;23.52;57.10;99537.44;1784822;78;21342;-76
2023/08/08 00:33:37;;;;;;;9.13;3.80;;;;;;;23.47;57.15;99542.46;1784808;79;21315;-76
2023/08/08 00:36:43;;;;;;;7.95;3.72;;;;;;;23.41;57.41;99551.13;1778882;78;21905;-76
2023/08/08 00:39:54;;;;;;;9.58;3.95;;;;;;;23.46;57.23;99550.56;1785967;79;21347;-75
2023/08/08 00:43:01;;;;;;;11.28;4.15;;;;;;;23.12;58.40;99551.67;1780240;79;21858;-75
2023/08/08 00:46:06;;;;;;;8.85;4.22;;;;;;;23.19;58.38;99549.44;1783293;79;21363;-75
2023/08/08 00:49:13;;;;;;;6.50;3.90;;;;;;;23.08;58.85;99551.95;1793779;79;21874;-76
2023/08/08 00:52:18;;;;;;;8.35;4.25;;;;;;;23.27;58.35;99544.44;1790616;79;21912;-75
2023/08/08 00:55:25;;;;;;;6.90;4.12;;;;;;;23.02;59.15;99554.45;1787791;79;21355;-75
2023/08/08 00:58:31;;;;;;;13.75;4.20;;;;;;;22.87;59.96;99553.01;1711311;82;21389;-75
2023/08/08 01:01:36;;;;;;;7.53;4.10;;;;;;;22.96;59.90;99556.97;1746820;81;21974;-76
2023/08/08 01:04:43;;;;;;;9.38;4.28;;;;;;;23.04;59.96;99558.35;1760181;81;21339;-75
2023/08/08 01:08:13;;;;;;;8.50;4.15;;;;;;;23.23;59.65;99567.02;1713942;82;21343;-75
2023/08/08 01:11:19;;;;;;;6.10;3.58;;;;;;;23.21;59.65;99563.12;1784713;78;21819;-76
2023/08/08 01:14:25;;;;;;;7.65;3.98;;;;;;;23.23;59.76;99571.20;1783785;78;21343;-76
2023/08/08 01:17:31;;;;;;;8.15;3.85;;;;;;;23.31;59.53;99566.48;1788202;78;21324;-76
2023/08/08 01:20:37;;;;;;;6.92;4.10;;;;;;;23.50;59.05;99567.59;1793400;79;21316;-76
2023/08/08 01:23:53;;;;;;;6.58;3.55;;;;;;;23.48;59.01;99568.45;1771859;79;21901;-76
2023/08/08 01:26:59;;;;;;;9.20;3.83;;;;;;;23.55;58.89;99575.97;1773732;78;21311;-76
2023/08/08 01:30:05;;;;;;;5.85;3.75;;;;;;;23.23;59.98;99576.78;1789779;79;21938;-76
2023/08/08 01:33:13;;;;;;;5.97;3.60;;;;;;;23.08;60.55;99588.20;1784592;79;21311;-76
2023/08/08 01:36:24;;;;;;;7.08;4.37;;;;;;;23.08;60.60;99591.55;1779187;79;22665;-75
2023/08/08 01:39:37;;;;;;;10.08;3.85;;;;;;;23.29;60.04;99594.67;1780990;79;21886;-75
2023/08/08 01:42:42;;;;;;;6.42;3.58;;;;;;;22.99;61.10;99601.02;1791466;79;21312;-75
2023/08/08 01:45:48;;;;;;;10.50;3.87;;;;;;;22.78;61.96;99604.84;1781503;78;22695;-75
2023/08/08 01:48:56;;;;;;;9.90;3.50;;;;;;;22.97;61.41;99610.22;1787748;79;21770;-76
2023/08/08 01:52:02;;;;;;;8.50;3.83;;;;;;;22.68;62.41;99609.27;1770180;79;21894;-75
2023/08/08 01:55:08;;;;;;;4.47;3.20;;;;;;;22.95;61.66;99609.64;1768843;79;21996;-75
2023/08/08 01:58:14;;;;;;;7.10;3.65;;;;;;;23.13;61.27;99606.90;1791955;79;21319;-76
2023/08/08 02:01:21;;;;;;;12.70;3.33;;;;;;;23.02;61.75;99623.34;1790716;79;21335;-75
2023/08/08 02:04:26;;;;;;;6.40;3.33;;;;;;;22.90;62.01;99615.20;1774220;78;21355;-76
2023/08/08 02:07:32;;;;;;;13.83;3.10;;;;;;;22.92;62.03;99619.97;1787419;79;21652;-76
2023/08/08 02:10:38;;;;;;;8.38;3.10;;;;;;;23.14;61.60;99626.70;1789582;78;21347;-76
2023/08/08 02:13:44;;;;;;;7.62;3.37;;;;;;;23.16;61.37;99630.06;1797326;79;21295;-76
2023/08/08 02:16:49;;;;;;;4.90;2.83;;;;;;;23.05;61.64;99625.56;1784339;79;21319;-76
2023/08/08 02:19:55;;;;;;;19.07;3.35;;;;;;;23.15;61.36;99629.23;1785732;79;21359;-75
2023/08/08 02:23:01;;;;;;;5.50;2.98;;;;;;;23.36;60.86;99627.86;1777445;79;21310;-76
2023/08/08 02:26:08;;;;;;;9.30;3.35;;;;;;;23.38;60.63;99632.06;1793442;79;21351;-75
2023/08/08 02:29:13;;;;;;;11.95;3.35;;;;;;;23.47;60.48;99623.39;1792811;79;21347;-76
2023/08/08 02:32:18;;;;;;;8.40;3.08;;;;;;;23.26;61.07;99639.84;1796379;79;21888;-76
2023/08/08 02:35:24;;;;;;;9.58;3.35;;;;;;;23.35;60.81;99642.94;1779139;79;21855;-75
2023/08/08 02:38:30;;;;;;;6.00;3.33;;;;;;;23.37;60.63;99642.09;1786563;79;21323;-75
2023/08/08 02:41:36;;;;;;;7.33;3.27;;;;;;;23.17;61.27;99654.05;1769915;79;21327;-76
2023/08/08 02:44:41;;;;;;;5.10;2.90;;;;;;;23.06;61.63;99653.20;1791769;79;21338;-75
2023/08/08 02:47:49;;;;;;;5.10;2.72;;;;;;;23.31;61.09;99656.59;1717144;82;21897;-76
2023/08/08 02:50:56;;;;;;;6.05;2.85;;;;;;;23.45;60.47;99648.53;1793658;79;21304;-75
2023/08/08 02:54:02;;;;;;;6.20;2.98;;;;;;;23.61;59.94;99643.22;1796000;79;21328;-76
2023/08/08 02:57:10;;;;;;;6.10;3.10;;;;;;;23.62;60.12;99647.72;1781879;78;21307;-76
2023/08/08 03:00:19;;;;;;;7.53;2.90;;;;;;;23.92;59.58;99652.48;1777540;79;21323;-76
2023/08/08 03:03:25;;;;;;;5.37;2.85;;;;;;;23.99;59.40;99660.56;1776641;79;21331;-76
2023/08/08 03:06:33;;;;;;;4.65;2.77;;;;;;;24.11;58.99;99652.74;1783606;78;21223;-76
2023/08/08 03:09:38;;;;;;;12.90;2.90;;;;;;;24.47;58.04;99654.11;1782162;79;21319;-76
2023/08/08 03:12:45;;;;;;;4.58;3.00;;;;;;;24.64;57.27;99653.76;1789518;79;21193;-75
2023/08/08 03:15:52;;;;;;;8.15;3.10;;;;;;;24.87;56.47;99656.47;1777427;78;21327;-76
2023/08/08 03:18:58;;;;;;;8.85;3.85;;;;;;;24.93;56.24;99659.50;1788891;79;21324;-76
2023/08/08 03:22:05;;;;;;;18.80;3.20;;;;;;;25.19;55.27;99656.06;1774458;78;21346;-75
2023/08/08 03:25:13;;;;;;;6.60;3.30;;;;;;;25.31;54.84;99664.09;1782562;79;21323;-76
2023/08/08 03:28:19;;;;;;;6.55;3.00;;;;;;;25.52;53.96;99661.45;1789011;79;21722;-76
2023/08/08 03:31:26;;;;;;;10.08;3.10;;;;;;;25.53;53.76;99667.31;1777554;79;21378;-76
2023/08/08 03:34:31;;;;;;;6.33;2.85;;;;;;;25.46;53.62;99670.45;1782096;79;21359;-76
2023/08/08 03:37:38;;;;;;;9.40;3.60;;;;;;;25.36;53.70;99671.05;1776326;79;21319;-76
2023/08/08 03:40:45;;;;;;;5.30;3.10;;;;;;;25.41;53.87;99666.85;1782122;79;21323;-75
2023/08/08 03:43:50;;;;;;;9.38;3.02;;;;;;;25.42;54.25;99681.95;1776137;79;21315;-75
2023/08/08 03:46:56;;;;;;;11.33;3.10;;;;;;;25.95;52.97;99674.30;1792705;79;21339;-77
2023/08/08 03:50:04;;;;;;;5.60;3.22;;;;;;;26.23;52.31;99672.64;1774384;79;21965;-76
2023/08/08 03:53:10;;;;;;;9.98;2.75;;;;;;;26.60;51.04;99680.42;1787806;79;21307;-76
2023/08/08 03:56:15;;;;;;;11.83;3.10;;;;;;;26.79;50.49;99681.05;1788830;79;21355;-75
2023/08/08 03:59:21;;;;;;;7.45;2.65;;;;;;;26.82;50.21;99682.70;1780590;79;21712;-75
2023/08/08 04:02:28;;;;;;;4.75;2.58;;;;;;;26.97;49.93;99692.89;1784250;79;21327;-76
2023/08/08 04:05:39;;;;;;;10.75;2.90;;;;;;;26.81;50.15;99695.03;1780367;79;21913;-75
2023/08/08 04:08:45;;;;;;;7.50;3.08;;;;;;;27.13;49.62;99697.77;1774384;79;21331;-76
2023/08/08 04:11:52;;;;;;;8.05;2.85;;;;;;;27.41;48.90;99703.83;1782210;79;21386;-76
2023/08/08 04:14:59;;;;;;;5.20;2.92;;;;;;;27.56;48.62;99705.58;1777924;79;21335;-76
2023/08/08 04:18:06;;;;;;;4.12;2.60;;;;;;;27.93;48.06;99707.56;1787184;79;21373;-75
2023/08/08 04:21:13;;;;;;;5.10;2.58;;;;;;;28.18;47.46;99706.31;1782667;79;21917;-77
2023/08/08 04:24:18;;;;;;;10.15;2.80;;;;;;;28.22;47.14;99708.75;1781594;78;21331;-76
2023/08/08 04:27:24;;;;;;;7.53;2.77;;;;;;;28.30;47.30;99721.28;1775989;79;21339;-76
2023/08/08 04:30:30;;;;;;;8.38;2.90;;;;;;;28.46;46.88;99715.66;1787700;78;22512;-76
2023/08/08 04:33:37;;;;;;;12.58;3.15;;;;;;;28.53;46.31;99721.73;1788272;79;21355;-76
2023/08/08 04:36:43;;;;;;;6.42;2.85;;;;;;;29.00;45.15;99725.34;1715572;82;21332;-76
2023/08/08 04:39:49;;;;;;;10.05;2.98;;;;;;;28.86;45.56;99734.91;1717750;82;21348;-75
2023/08/08 04:42:56;;;;;;;8.75;2.92;;;;;;;28.97;45.53;99735.81;1783173;79;21328;-76
2023/08/08 04:46:01;;;;;;;5.10;2.58;;;;;;;28.94;45.07;99734.19;1709454;81;21343;-76
2023/08/08 04:49:07;;;;;;;8.30;3.55;;;;;;;29.41;44.21;99737.73;1736678;81;21334;-76
2023/08/08 04:52:13;;;;;;;9.03;3.30;;;;;;;29.28;44.22;99739.41;1758595;81;21341;-77
2023/08/08 04:55:19;;;;;;;9.65;3.10;;;;;;;29.25;44.21;99738.05;1791314;79;21303;-76
2023/08/08 04:58:26;;;;;;;9.60;3.42;;;;;;;29.25;43.89;99740.86;1789804;78;21322;-75
2023/08/08 05:01:31;;;;;;;11.15;3.83;;;;;;;29.40;43.72;99746.73;1796941;79;21296;-77
2023/08/08 05:04:39;;;;;;;10.55;4.00;;;;;;;29.19;44.13;99750.58;1781432;79;21387;-77
2023/08/08 05:07:45;;;;;;;9.58;3.25;;;;;;;29.20;44.32;99746.61;1786069;79;21319;-76
2023/08/08 05:10:52;;;;;;;18.77;3.85;;;;;;;29.38;44.04;99751.86;1789909;79;21871;-76
2023/08/08 05:13:58;;;;;;;8.45;3.22;;;;;;;29.72;43.69;99750.00;1785830;79;21256;-76
2023/08/08 05:17:04;;;;;;;20.72;3.72;;;;;;;29.74;43.14;99753.34;1788310;79;21323;-76
2023/08/08 05:20:12;;;;;;;10.40;4.42;;;;;;;29.44;43.76;99744.13;1757246;80;21228;-77
2023/08/08 05:23:18;;;;;;;13.90;4.08;;;;;;;29.36;44.19;99748.55;1754811;79;21351;-77
2023/08/08 05:26:24;;;;;;;10.45;2.72;;;;;;;29.37;43.20;99752.19;1779889;79;21325;-78
2023/08/08 05:29:30;;;;;;;11.95;3.37;;;;;;;29.59;42.82;99752.27;1791030;78;21308;-76
2023/08/08 05:32:36;;;;;;;11.20;3.12;;;;;;;29.49;43.44;99747.66;1768377;78;21326;-77
2023/08/08 05:35:42;;;;;;;18.32;3.92;;;;;;;29.45;43.52;99750.02;1789727;79;22630;-77
2023/08/08 05:38:48;;;;;;;12.05;2.52;;;;;;;29.71;42.88;99749.75;1760344;79;21335;-76
2023/08/08 05:41:53;;;;;;;15.68;4.15;;;;;;;29.72;42.88;99743.53;1774643;79;21386;-77
2023/08/08 05:45:00;;;;;;;11.65;4.08;;;;;;;29.95;42.43;99742.41;1768089;79;21290;-78
2023/08/08 05:48:06;;;;;;;12.33;4.12;;;;;;;30.22;42.22;99748.55;1772668;78;21347;-78
2023/08/08 05:51:11;;;;;;;11.33;3.42;;;;;;;30.31;42.18;99753.43;1779482;78;21331;-78
2023/08/08 05:54:16;;;;;;;9.48;3.77;;;;;;;30.40;41.78;99755.16;1782209;79;21906;-78
2023/08/08 05:57:21;;;;;;;7.03;2.58;;;;;;;30.50;41.56;99758.28;1787089;79;21311;-78
2023/08/08 06:00:27;;;;;;;7.28;3.17;;;;;;;30.57;40.69;99755.82;1791758;79;21327;-77
2023/08/08 06:03:33;;;;;;;6.05;2.37;;;;;;;30.62;40.74;99757.09;1778987;79;21329;-78
2023/08/08 06:06:40;;;;;;;4.58;2.47;;;;;;;30.91;39.90;99752.95;1764198;79;22479;-77
2023/08/08 06:09:47;;;;;;;8.18;2.90;;;;;;;31.15;39.04;99755.38;1741649;81;21342;-78
2023/08/08 06:13:00;;;;;;;9.00;2.60;;;;;;;31.36;39.43;99756.48;1775581;79;21192;-78
2023/08/08 06:16:06;;;;;;;10.18;2.70;;;;;;;31.41;38.98;99756.91;1774653;79;21321;-77
2023/08/08 06:19:14;;;;;;;7.12;2.52;;;;;;;31.52;38.76;99764.77;1772632;79;21339;-78
2023/08/08 06:22:21;;;;;;;8.13;2.90;;;;;;;31.17;38.95;99757.31;1770251;79;21949;-77
2023/08/08 06:25:28;;;;;;;7.17;2.25;;;;;;;31.32;38.84;99759.70;1709438;82;21321;-78
2023/08/08 06:28:35;;;;;;;3.37;1.80;;;;;;;31.28;37.84;99755.87;1709757;82;21331;-78
2023/08/08 06:31:41;;;;;;;8.55;2.20;;;;;;;31.40;37.58;99756.08;1735271;80;21920;-78
2023/08/08 06:34:49;;;;;;;5.67;2.75;;;;;;;31.40;38.45;99762.31;1739094;80;21319;-78
2023/08/08 06:37:58;;;;;;;7.30;2.90;;;;;;;31.33;38.57;99752.89;1777974;79;21779;-78
2023/08/08 06:41:04;;;;;;;3.90;2.30;;;;;;;31.16;39.59;99745.18;1773982;79;21308;-77
2023/08/08 06:44:10;;;;;;;7.17;2.47;;;;;;;31.42;39.30;99743.03;1715668;82;22173;-78
2023/08/08 06:47:16;;;;;;;6.28;2.00;;;;;;;31.49;39.42;99740.56;1780451;79;21878;-78
2023/08/08 06:50:21;;;;;;;6.25;2.30;;;;;;;31.91;38.55;99750.29;1776557;79;21374;-78
2023/08/08 06:53:27;;;;;;;6.10;2.00;;;;;;;32.06;38.39;99749.78;1773891;79;21367;-79
2023/08/08 06:56:32;;;;;;;6.53;2.37;;;;;;;32.08;37.11;99741.53;1771441;79;21310;-76
2023/08/08 06:59:39;;;;;;;12.63;3.22;;;;;;;31.55;38.38;99746.30;1695246;82;22009;-77
2023/08/08 07:02:45;;;;;;;2.83;1.90;;;;;;;31.29;38.95;99742.84;1711355;81;21859;-77
2023/08/08 07:05:52;;;;;;;5.83;2.05;;;;;;;32.54;36.48;99746.50;1717698;81;21351;-76
2023/08/08 07:08:59;;;;;;;14.80;2.25;;;;;;;28.08;43.59;99744.41;1713806;82;21352;-77
2023/08/08 07:12:05;;;;;;;8.60;1.62;;;;;;;27.22;46.08;99740.30;1768126;79;22055;-77
2023/08/08 07:15:13;;;;;;;6.20;1.70;;;;;;;27.05;46.77;99735.70;1760804;79;21299;-78
2023/08/08 07:18:20;;;;;;;5.05;1.80;;;;;;;27.11;47.43;99740.75;1768706;79;21326;-77
2023/08/08 07:21:29;;;;;;;4.45;1.75;;;;;;;27.11;47.36;99732.33;1767378;79;21315;-78
2023/08/08 07:24:34;;;;;;;3.12;1.30;;;;;;;27.19;47.29;99740.06;1762104;78;21287;-77
2023/08/08 07:27:41;;;;;;;3.17;1.37;;;;;;;27.32;46.18;99737.93;1777210;79;21311;-78
2023/08/08 07:30:49;;;;;;;4.72;1.40;;;;;;;27.31;45.90;99735.44;1754835;80;21387;-79
2023/08/08 07:33:56;;;;;;;8.98;1.72;;;;;;;27.31;46.24;99736.84;1681543;82;21299;-78
2023/08/08 07:37:01;;;;;;;3.00;1.67;;;;;;;27.11;46.88;99734.56;1788353;78;21970;-77
2023/08/08 07:40:08;;;;;;;5.42;1.47;;;;;;;27.19;46.68;99738.66;1767622;79;21394;-78
2023/08/08 07:43:15;;;;;;;3.17;1.40;;;;;;;27.50;46.47;99739.92;1763003;79;21346;-78
2023/08/08 07:46:20;;;;;;;5.05;1.47;;;;;;;27.52;46.14;99748.04;1768086;79;22185;-78
2023/08/08 07:49:28;;;;;;;2.52;1.17;;;;;;;27.24;47.24;99747.02;1761210;79;21249;-77
2023/08/08 07:52:33;;;;;;;1.30;0.98;;;;;;;27.51;46.40;99744.97;1759830;79;21311;-77
2023/08/08 07:55:40;;;;;;;5.35;1.40;;;;;;;27.57;46.03;99745.19;1782630;79;21325;-78
2023/08/08 07:58:46;;;;;;;4.45;1.95;;;;;;;29.04;43.48;99748.08;1779231;78;21857;-77
2023/08/08 08:01:52;;;;;;;4.60;1.90;;;;;;;29.80;41.67;99739.97;1777178;79;21885;-77
2023/08/08 08:04:58;;;;;;;10.72;2.40;;;;;;;30.05;40.73;99740.75;1782104;78;21322;-78
2023/08/08 08:08:04;;;;;;;3.87;1.52;;;;;;;30.29;40.30;99734.81;1774143;78;21331;-78
2023/08/08 08:11:12;;;;;;;2.42;1.60;;;;;;;30.68;39.93;99733.24;1779860;79;21308;-78
2023/08/08 08:14:25;;;;;;;3.55;1.87;;;;;;;30.69;39.49;99742.54;1775362;79;21339;-77
2023/08/08 08:17:31;;;;;;;2.20;1.50;;;;;;;31.18;38.63;99742.84;1776235;79;21920;-76
2023/08/08 08:20:36;;;;;;;3.35;2.00;;;;;;;31.41;38.42;99744.19;1786811;79;21306;-77
2023/08/08 08:23:44;;;;;;;4.85;2.00;;;;;;;31.27;38.18;99736.67;1779856;79;21306;-77
2023/08/08 08:26:50;;;;;;;5.62;1.70;;;;;;;31.54;38.67;99740.41;1788693;79;21259;-77
2023/08/08 08:29:57;;;;;;;4.08;2.15;;;;;;;32.00;36.85;99733.33;1784518;79;21478;-77
2023/08/08 08:33:04;;;;;;;4.95;1.77;;;;;;;32.08;36.57;99735.88;1784221;79;21838;-78
2023/08/08 08:36:13;;;;;;;2.80;1.75;;;;;;;32.09;36.14;99728.49;1783550;79;21339;-78
2023/08/08 08:39:19;;;;;;;10.45;1.65;;;;;;;31.68;36.21;99722.71;1775637;79;21199;-77
2023/08/08 08:42:25;;;;;;;2.40;1.30;;;;;;;31.68;35.82;99726.95;1790871;79;21425;-78
2023/08/08 08:45:31;;;;;;;5.60;1.65;;;;;;;31.94;35.91;99724.73;1774596;79;21889;-78
2023/08/08 08:48:38;;;;;;;2.45;1.57;;;;;;;31.88;35.99;99723.25;1774335;79;21832;-78
2023/08/08 08:51:45;;;;;;;1.42;1.00;;;;;;;31.57;36.85;99719.94;1787129;79;21335;-78
2023/08/08 08:54:51;;;;;;;5.03;1.32;;;;;;;31.65;36.83;99717.71;1789208;79;21343;-77
2023/08/08 08:57:58;;;;;;;4.50;1.12;;;;;;;31.46;36.47;99731.32;1790518;79;21888;-78
2023/08/08 09:01:04;;;;;;;4.37;1.37;;;;;;;31.53;36.56;99726.86;1777778;78;21941;-76
2023/08/08 09:04:10;;;;;;;2.45;1.20;;;;;;;31.60;36.18;99723.53;1772828;79;21364;-77
2023/08/08 09:07:16;;;;;;;1.72;1.32;;;;;;;31.80;37.03;99737.00;1766764;79;21898;-77
2023/08/08 09:10:35;;;;;;;1.10;0.85;;;;;;;31.49;36.57;99737.73;1765134;79;21315;-77
2023/08/08 09:13:45;;;;;;;1.70;1.00;;;;;;;31.55;36.85;99740.65;1751458;79;21332;-77
2023/08/08 09:16:53;;;;;;;3.58;0.98;;;;;;;31.70;35.19;99741.58;1774968;79;21343;-77
2023/08/08 09:20:00;;;;;;;1.15;1.00;;;;;;;31.72;34.41;99745.51;1741025;81;21768;-77
2023/08/08 09:23:06;;;;;;;2.70;0.98;;;;;;;31.70;34.72;99730.27;1751436;80;21949;-77
2023/08/08 09:26:11;;;;;;;2.50;0.93;;;;;;;31.69;35.72;99725.78;1777086;78;22500;-78
2023/08/08 09:29:21;;;;;;;4.03;1.20;;;;;;;31.52;36.01;99715.31;1742424;78;22024;-77
2023/08/08 09:32:28;;;;;;;1.72;0.95;;;;;;;31.56;35.51;99714.05;1761983;79;21326;-78
2023/08/08 09:35:37;;;;;;;3.00;1.35;;;;;;;31.52;36.30;99710.21;1771136;79;21353;-76
2023/08/08 09:38:43;;;;;;;4.78;1.20;;;;;;;31.66;35.25;99717.95;1791995;78;21681;-77
2023/08/08 09:41:53;;;;;;;3.75;1.10;;;;;;;31.90;34.40;99725.15;1777136;78;22529;-76
2023/08/08 09:44:59;;;;;;;5.87;1.20;;;;;;;31.99;33.89;99724.56;1769983;79;21358;-77
2023/08/08 09:48:08;;;;;;;2.72;1.12;;;;;;;31.91;34.45;99729.08;1776050;79;21331;-77
2023/08/08 09:51:14;;;;;;;4.03;1.00;;;;;;;31.86;34.36;99729.83;1784259;79;21857;-77
2023/08/08 09:54:21;;;;;;;0.95;0.90;;;;;;;31.86;33.78;99732.66;1767869;79;21328;-77
2023/08/08 09:57:26;;;;;;;2.00;0.98;;;;;;;32.00;34.17;99736.16;1775642;79;21322;-77
2023/08/08 10:00:34;;;;;;;5.87;1.00;;;;;;;32.09;33.83;99734.70;1765771;79;21319;-77
2023/08/08 10:03:39;;;;;;;2.72;1.05;;;;;;;32.04;33.56;99726.67;1770547;79;21310;-77
2023/08/08 10:06:46;;;;;;;5.85;1.12;;;;;;;31.84;33.41;99722.25;1782129;79;21364;-77
2023/08/08 10:09:51;;;;;;;1.30;0.88;;;;;;;32.14;32.48;99721.84;1764908;79;21956;-76
2023/08/08 10:13:05;;;;;;;4.40;0.70;;;;;;;32.13;32.97;99732.30;1786852;79;22490;-77
2023/08/08 10:16:16;;;;;;;1.75;0.80;;;;;;;32.27;32.85;99725.04;1784270;79;21946;-76
2023/08/08 10:19:26;;;;;;;3.65;0.88;;;;;;;32.23;32.34;99731.97;1762348;79;22386;-76
2023/08/08 10:22:32;;;;;;;3.45;0.90;;;;;;;32.34;31.80;99725.96;1712533;82;21328;-77
2023/08/08 10:25:39;;;;;;;5.72;0.82;;;;;;;32.59;31.63;99733.58;1718509;82;21327;-77
2023/08/08 10:28:44;;;;;;;1.67;0.60;;;;;;;32.81;31.00;99729.09;1683439;82;21339;-77
2023/08/08 10:31:51;;;;;;;1.95;0.88;;;;;;;32.52;31.49;99729.03;1678896;83;21343;-77
2023/08/08 10:35:01;;;;;;;6.28;0.80;;;;;;;32.60;31.86;99728.16;1757375;79;21335;-81
2023/08/08 10:38:11;;;;;;;5.33;1.20;;;;;;;32.70;30.90;99715.08;1741825;79;21313;-78
2023/08/08 10:41:25;;;;;;;4.92;0.85;;;;;;;33.02;31.34;99722.11;1741588;80;21316;-78
2023/08/08 10:44:31;;;;;;;1.65;0.75;;;;;;;32.83;31.68;99722.50;1779387;79;21319;-79
2023/08/08 10:47:44;;;;;;;1.85;0.60;;;;;;;32.71;31.32;99718.73;1789319;79;21324;-78
2023/08/08 10:50:51;;;;;;;2.70;1.05;;;;;;;32.40;31.45;99723.23;1778347;79;21327;-78
2023/08/08 10:53:59;;;;;;;4.83;0.90;;;;;;;32.03;32.20;99719.91;1711923;81;21890;-77
2023/08/08 10:57:06;;;;;;;2.22;0.80;;;;;;;32.27;32.57;99722.20;1774173;79;21387;-79
2023/08/08 11:00:27;;;;;;;1.17;0.70;;;;;;;32.22;32.29;99707.66;1763604;79;21318;-78
2023/08/08 11:03:33;;;;;;;2.37;0.72;;;;;;;32.35;32.14;99707.22;1768077;79;21874;-79
2023/08/08 11:06:38;;;;;;;3.15;0.90;;;;;;;32.55;31.66;99691.55;1764869;79;21355;-79
2023/08/08 11:09:45;;;;;;;3.08;0.90;;;;;;;32.55;31.78;99700.86;1770446;79;22023;-79
2023/08/08 11:13:07;;;;;;;7.05;0.78;;;;;;;32.85;31.63;99691.62;1775887;79;21170;-78
2023/08/08 11:16:14;;;;;;;4.78;0.90;;;;;;;33.09;31.44;99696.11;1759389;78;21327;-79
2023/08/08 11:19:20;;;;;;;7.92;1.37;;;;;;;33.17;30.85;99692.40;1779505;79;21322;-79
2023/08/08 11:22:27;;;;;;;1.55;0.70;;;;;;;32.83;30.89;99699.02;1783210;79;22084;-76
2023/08/08 11:25:35;;;;;;;3.37;0.95;;;;;;;32.71;31.33;99692.67;1749876;79;21647;-78
2023/08/08 11:28:42;;;;;;;2.45;0.93;;;;;;;32.73;31.24;99695.98;1766300;79;21331;-78
2023/08/08 11:31:47;;;;;;;1.72;0.78;;;;;;;32.91;30.83;99686.86;1770798;79;21331;-78
2023/08/08 11:34:54;;;;;;;0.75;0.60;;;;;;;32.07;31.25;99688.37;1790866;79;21339;-74
2023/08/08 11:38:07;;;;;;;1.67;0.90;;;;;;;29.37;35.78;99678.38;1736045;79;21318;-75
2023/08/08 11:41:13;;;;;;;0.82;0.70;;;;;;;29.12;35.88;99679.76;1780306;79;21319;-76
2023/08/08 11:44:18;;;;;;;1.42;0.90;;;;;;;29.44;36.49;99673.70;1767831;79;21323;-76
2023/08/08 11:47:24;;;;;;;1.25;0.78;;;;;;;29.42;35.78;99677.43;1775736;79;21346;-76
2023/08/08 11:50:32;;;;;;;3.00;0.90;;;;;;;29.54;35.93;99672.05;1741525;81;21349;-77
2023/08/08 11:53:38;;;;;;;2.25;0.90;;;;;;;29.37;36.06;99669.10;1777735;79;21339;-78
2023/08/08 11:56:43;;;;;;;2.17;1.00;;;;;;;29.31;36.00;99666.12;1758741;79;21364;-77
2023/08/08 11:59:52;;;;;;;1.10;0.80;;;;;;;29.01;36.50;99672.69;1783331;79;21308;-77
2023/08/08 12:03:01;;;;;;;1.90;0.80;;;;;;;29.07;36.69;99674.81;1770743;79;21938;-76
2023/08/08 12:06:07;;;;;;;1.07;0.78;;;;;;;29.24;35.82;99665.16;1773213;79;21366;-77
2023/08/08 12:09:16;;;;;;;2.17;0.75;;;;;;;29.18;35.91;99657.41;1769570;79;22075;-77
2023/08/08 12:12:22;;;;;;;5.42;1.02;;;;;;;29.18;35.91;99657.41;1788387;79;22540;-77
2023/08/08 12:15:28;;;;;;;1.52;0.93;;;;;;;29.26;35.02;99665.08;1785507;79;22764;-76
2023/08/08 12:18:35;;;;;;;1.62;0.75;;;;;;;29.38;35.02;99667.36;1771377;79;21349;-76
2023/08/08 12:21:41;;;;;;;0.90;0.80;;;;;;;29.37;34.88;99656.42;1759262;79;21367;-77
2023/08/08 12:24:46;;;;;;;4.78;0.88;;;;;;;29.53;34.82;99661.36;1785178;79;21338;-78
2023/08/08 12:27:52;;;;;;;0.78;0.62;;;;;;;29.48;34.67;99657.84;1763484;79;21330;-78
2023/08/08 12:30:59;;;;;;;1.70;0.80;;;;;;;29.56;35.21;99659.94;1781814;79;21365;-77
2023/08/08 12:34:04;;;;;;;3.05;0.80;;;;;;;29.47;34.50;99662.64;1762123;79;21630;-78
2023/08/08 12:37:11;;;;;;;1.55;0.80;;;;;;;29.73;34.27;99657.24;1757983;78;21362;-78
2023/08/08 12:40:19;;;;;;;2.72;0.78;;;;;;;29.73;34.27;99657.24;1768456;79;21977;-78
2023/08/08 12:43:27;;;;;;;4.08;1.10;;;;;;;29.64;33.43;99652.69;1783638;79;21488;-77
2023/08/08 12:46:33;;;;;;;1.60;0.80;;;;;;;29.75;33.92;99652.14;1756910;79;21968;-78
2023/08/08 12:49:39;;;;;;;6.87;1.05;;;;;;;29.62;34.62;99654.43;1786631;79;21315;-78
2023/08/08 12:52:45;;;;;;;4.45;0.90;;;;;;;29.32;34.85;99653.15;1751667;79;21400;-76
2023/08/08 12:55:50;;;;;;;2.00;1.05;;;;;;;29.54;35.34;99656.56;1753706;79;21395;-76
2023/08/08 12:58:56;;;;;;;1.25;0.70;;;;;;;30.13;33.81;99651.77;1773879;79;21914;-76
2023/08/08 13:02:02;;;;;;;4.83;0.65;;;;;;;30.43;33.00;99653.50;1771989;79;21433;-76
2023/08/08 13:05:09;;;;;;;2.20;0.90;;;;;;;30.13;32.71;99644.72;1776183;79;22380;-75
2023/08/08 13:08:15;;;;;;;2.08;0.80;;;;;;;30.28;32.29;99650.52;1764846;79;21342;-78
2023/08/08 13:11:22;;;;;;;2.05;0.90;;;;;;;30.33;32.41;99647.56;1793984;79;22549;-77
2023/08/08 13:14:31;;;;;;;1.90;0.90;;;;;;;30.90;32.54;99656.71;1792006;79;21330;-77
2023/08/08 13:17:36;;;;;;;2.70;0.80;;;;;;;30.90;32.54;99656.71;1753970;80;21358;-77
2023/08/08 13:20:42;;;;;;;0.85;0.72;;;;;;;31.60;30.99;99656.28;1762704;78;21700;-78
2023/08/08 13:23:49;;;;;;;1.45;0.70;;;;;;;31.60;30.99;99656.28;1787803;79;22613;-78
2023/08/08 13:26:55;;;;;;;2.15;0.80;;;;;;;31.43;30.48;99649.47;1780327;79;21394;-77
2023/08/08 13:30:01;;;;;;;1.47;0.90;;;;;;;31.43;30.48;99649.47;1790608;79;21337;-77
2023/08/08 13:33:06;;;;;;;1.27;0.90;;;;;;;29.96;34.13;99646.80;1787397;79;21986;-76
2023/08/08 13:36:12;;;;;;;1.67;0.80;;;;;;;29.96;34.13;99646.80;1784774;78;21393;-77
2023/08/08 13:39:17;;;;;;;1.85;0.85;;;;;;;30.59;32.94;99647.70;1788686;79;21327;-77
2023/08/08 13:42:24;;;;;;;1.98;1.00;;;;;;;30.75;32.81;99648.94;1787173;79;21327;-77
2023/08/08 13:45:31;;;;;;;2.02;0.95;;;;;;;30.68;33.47;99657.04;1782836;79;21225;-77
2023/08/08 13:48:37;;;;;;;1.87;0.95;;;;;;;30.88;33.09;99657.63;1780143;79;21886;-76
2023/08/08 13:51:42;;;;;;;5.08;1.67;;;;;;;30.88;33.09;99657.63;1778554;78;22477;-75
2023/08/08 13:54:51;;;;;;;4.47;0.85;;;;;;;30.91;33.14;99655.55;1787034;79;21351;-75
2023/08/08 13:57:57;;;;;;;1.87;0.70;;;;;;;30.80;32.64;99650.78;1790186;79;21366;-77
2023/08/08 14:01:05;;;;;;;4.03;1.00;;;;;;;30.79;32.44;99638.67;1792105;79;21323;-75
2023/08/08 14:04:11;;;;;;;2.83;0.90;;;;;;;30.88;32.87;99646.34;1775203;79;21933;-75
2023/08/08 14:07:18;;;;;;;2.92;0.85;;;;;;;30.85;32.77;99636.52;1774476;79;21326;-76
2023/08/08 14:10:26;;;;;;;3.47;0.90;;;;;;;30.79;32.49;99638.67;1769483;79;22627;-75
2023/08/08 14:13:34;;;;;;;2.10;0.93;;;;;;;30.93;32.29;99644.19;1791666;79;21343;-74
2023/08/08 14:16:41;;;;;;;1.27;0.90;;;;;;;30.94;32.65;99636.55;1791432;79;21886;-76
2023/08/08 14:19:48;;;;;;;2.33;0.98;;;;;;;30.92;32.41;99640.30;1785654;79;21927;-75
2023/08/08 14:22:53;;;;;;;1.70;0.72;;;;;;;30.75;32.55;99641.89;1720654;82;21299;-75
2023/08/08 14:25:58;;;;;;;3.05;1.00;;;;;;;30.61;33.11;99645.38;1790050;78;21307;-76
2023/08/08 14:29:04;;;;;;;5.75;1.30;;;;;;;30.36;33.51;99646.09;1792001;78;21320;-75
2023/08/08 14:32:10;;;;;;;3.72;0.80;;;;;;;30.68;33.15;99643.51;1789282;79;21331;-75
2023/08/08 14:35:16;;;;;;;4.37;1.07;;;;;;;30.43;33.81;99636.58;1778293;78;21687;-76
2023/08/08 14:38:22;;;;;;;6.12;1.57;;;;;;;30.27;34.35;99639.00;1717001;81;21327;-75